sim
Sign-in with your pilot id or email,
or register
Callsign
Passwort

Schedule Details

Flight Number: DLH2077
Departure: Hamburg Airport (EDDH) at 17:15
Arrival: Munich Airport (EDDM) at 18:30
Route: Lufthansa Passenger Schedule. Enter filed route here before submitting Pirep.

Weather Information
Getting current METAR information for EDDH 201920Z 06005KT CAVOK 13/08 Q1020 NOSIG
Getting current METAR information for EDDM 201920Z 35001KT CAVOK 13/11 Q1016 NOSIG

Schedule Frequency

Route Map